createdAt,value
2023-01-18T00:00:28.518Z,95323.53
2023-01-18T00:02:33.067Z,95327.94
2023-01-18T00:04:39.554Z,95324.66
2023-01-18T00:06:44.488Z,95332.25
2023-01-18T00:08:51.966Z,95328.25
2023-01-18T00:10:56.817Z,95323.38
2023-01-18T00:13:01.862Z,95327.31
2023-01-18T00:15:07.084Z,95326.13
2023-01-18T00:17:11.623Z,95333.66
2023-01-18T00:19:19.387Z,95333.84
2023-01-18T00:21:24.828Z,95336.22
2023-01-18T00:23:29.621Z,95338.44
2023-01-18T00:25:37.085Z,95343.84
2023-01-18T00:27:42.195Z,95350.81
2023-01-18T00:29:50.249Z,95353.88
2023-01-18T00:31:55.488Z,95346.88
2023-01-18T00:34:00.376Z,95332.84
2023-01-18T00:36:07.173Z,95329.25
2023-01-18T00:38:13.517Z,95323.13
2023-01-18T00:40:18.564Z,95332.22
2023-01-18T00:42:38.323Z,95337.34
2023-01-18T00:44:43.185Z,95339.09
2023-01-18T00:46:50.070Z,95334.19
2023-01-18T00:48:55.661Z,95332.94
2023-01-18T00:51:00.506Z,95342.56
2023-01-18T00:53:05.295Z,95343.22
2023-01-18T00:55:12.585Z,95346.25
2023-01-18T00:57:17.410Z,95351.19
2023-01-18T00:59:24.787Z,95345.69
2023-01-18T01:01:29.791Z,95356.09
2023-01-18T01:03:55.122Z,95351.47
2023-01-18T01:06:12.421Z,95346.03
2023-01-18T01:08:17.377Z,95354.75
2023-01-18T01:10:22.611Z,95357.50
2023-01-18T01:12:39.596Z,95355.22
2023-01-18T01:15:01.527Z,95357.13
2023-01-18T01:17:18.814Z,95362.44
2023-01-18T01:19:36.087Z,95360.06
2023-01-18T01:21:54.033Z,95368.56
2023-01-18T01:24:11.345Z,95367.94
2023-01-18T01:26:16.452Z,95368.69
2023-01-18T01:28:21.267Z,95374.28
2023-01-18T01:30:28.739Z,95360.09
2023-01-18T01:32:35.365Z,95361.66
2023-01-18T01:34:40.296Z,95349.91
2023-01-18T01:36:45.076Z,95360.47
2023-01-18T01:38:50.288Z,95357.09
2023-01-18T01:41:07.390Z,95363.78
2023-01-18T01:43:15.442Z,95371.38
2023-01-18T01:45:20.911Z,95359.63
2023-01-18T01:47:37.384Z,95361.38
2023-01-18T01:49:45.694Z,95371.00
2023-01-18T01:51:54.578Z,95372.38
2023-01-18T01:54:03.797Z,95370.00
2023-01-18T01:56:08.971Z,95377.06
2023-01-18T01:58:16.235Z,95370.34
2023-01-18T02:00:24.586Z,95362.94
2023-01-18T02:02:33.641Z,95364.97
2023-01-18T02:04:38.902Z,95368.19
2023-01-18T02:06:44.234Z,95362.56
2023-01-18T02:08:52.079Z,95358.72
2023-01-18T02:10:57.176Z,95357.63
2023-01-18T02:13:03.083Z,95363.94
2023-01-18T02:15:09.607Z,95346.63
2023-01-18T02:17:33.757Z,95351.56
2023-01-18T02:20:11.479Z,95348.63
2023-01-18T02:22:29.503Z,95348.06
2023-01-18T02:25:10.863Z,95351.47
2023-01-18T02:27:24.985Z,95348.81
2023-01-18T02:30:05.290Z,95355.16
2023-01-18T02:32:24.885Z,95359.47
2023-01-18T02:34:40.780Z,95359.47
2023-01-18T02:36:52.467Z,95361.38
2023-01-18T02:39:00.622Z,95362.84
2023-01-18T02:41:15.590Z,95365.41
2023-01-18T02:43:35.115Z,95365.59
2023-01-18T02:45:58.243Z,95366.59
2023-01-18T02:48:05.028Z,95369.81
2023-01-18T02:50:10.885Z,95373.41
2023-01-18T02:52:43.443Z,95371.22
2023-01-18T02:54:50.562Z,95370.94
2023-01-18T02:56:56.798Z,95374.72
2023-01-18T02:59:07.471Z,95371.78
2023-01-18T03:01:22.427Z,95370.59
2023-01-18T03:03:28.663Z,95368.00
2023-01-18T03:05:34.552Z,95366.34
2023-01-18T03:07:48.756Z,95358.47
2023-01-18T03:09:54.421Z,95360.00
2023-01-18T03:12:04.174Z,95363.94
2023-01-18T03:14:23.480Z,95363.25
2023-01-18T03:16:42.593Z,95367.81
2023-01-18T03:19:04.979Z,95371.66
2023-01-18T03:21:08.531Z,95374.72
2023-01-18T03:23:31.601Z,95371.13
2023-01-18T03:25:41.363Z,95374.72
2023-01-18T03:28:01.952Z,95381.78
2023-01-18T03:30:20.563Z,95378.47
2023-01-18T03:32:40.615Z,95384.06
2023-01-18T03:34:52.242Z,95379.03
2023-01-18T03:37:01.087Z,95377.66
2023-01-18T03:39:09.196Z,95380.41
2023-01-18T03:41:16.509Z,95385.44
2023-01-18T03:43:25.428Z,95380.03
2023-01-18T03:45:33.610Z,95389.13
2023-01-18T03:47:41.316Z,95390.41
2023-01-18T03:49:46.292Z,95395.38
2023-01-18T03:52:02.735Z,95396.84
2023-01-18T03:54:16.761Z,95395.84
2023-01-18T03:56:26.256Z,95396.19
2023-01-18T03:58:36.065Z,95409.75
2023-01-18T04:00:42.298Z,95400.47
2023-01-18T04:02:51.781Z,95413.31
2023-01-18T04:04:57.645Z,95411.75
2023-01-18T04:07:02.699Z,95407.09
2023-01-18T04:09:11.985Z,95409.97
2023-01-18T04:11:16.872Z,95411.91
2023-01-18T04:13:21.680Z,95409.97
2023-01-18T04:15:26.681Z,95417.31
2023-01-18T04:17:31.469Z,95416.03
2023-01-18T04:19:40.651Z,95412.13
2023-01-18T04:21:45.465Z,95420.66
2023-01-18T04:23:50.370Z,95417.47
2023-01-18T04:25:55.326Z,95419.50
2023-01-18T04:28:00.132Z,95423.38
2023-01-18T04:30:06.382Z,95421.19
2023-01-18T04:32:11.372Z,95425.78
2023-01-18T04:34:16.323Z,95422.84
2023-01-18T04:36:24.437Z,95419.97
2023-01-18T04:38:29.546Z,95413.81
2023-01-18T04:40:34.372Z,95415.75
2023-01-18T04:42:39.204Z,95414.00
2023-01-18T04:44:44.152Z,95411.34
2023-01-18T04:46:49.215Z,95415.50
2023-01-18T04:48:54.369Z,95430.56
2023-01-18T04:50:59.305Z,95426.97
2023-01-18T04:53:06.745Z,95430.63
2023-01-18T04:55:15.953Z,95435.22
2023-01-18T04:57:21.366Z,95436.47
2023-01-18T04:59:26.137Z,95434.03
2023-01-18T05:01:31.099Z,95436.66
2023-01-18T05:03:38.474Z,95453.91
2023-01-18T05:05:43.384Z,95445.69
2023-01-18T05:07:48.451Z,95447.53
2023-01-18T05:09:57.146Z,95449.81
2023-01-18T05:12:01.923Z,95451.38
2023-01-18T05:14:06.790Z,95463.00
2023-01-18T05:16:16.823Z,95475.69
2023-01-18T05:18:21.694Z,95473.59
2023-01-18T05:20:26.498Z,95469.84
2023-01-18T05:22:33.156Z,95474.00
2023-01-18T05:24:37.987Z,95482.59
2023-01-18T05:26:45.358Z,95483.09
2023-01-18T05:28:51.322Z,95489.13
2023-01-18T05:30:57.156Z,95487.84
2023-01-18T05:33:03.458Z,95489.44
2023-01-18T05:35:09.840Z,95495.03
2023-01-18T05:37:14.759Z,95504.00
2023-01-18T05:39:19.524Z,95507.94
2023-01-18T05:41:24.968Z,95502.06
2023-01-18T05:43:34.553Z,95504.28
2023-01-18T05:45:40.483Z,95503.53
2023-01-18T05:47:45.627Z,95508.91
2023-01-18T05:49:50.463Z,95506.88
2023-01-18T05:51:55.277Z,95507.28
2023-01-18T05:54:00.257Z,95505.09
2023-01-18T05:56:08.000Z,95509.63
2023-01-18T05:58:12.865Z,95511.66
2023-01-18T06:00:21.516Z,95514.53
2023-01-18T06:02:27.476Z,95511.31
2023-01-18T06:04:32.276Z,95526.56
2023-01-18T06:06:37.344Z,95516.84
2023-01-18T06:08:42.178Z,95519.19
2023-01-18T06:10:50.373Z,95525.72
2023-01-18T06:12:55.206Z,95535.53
2023-01-18T06:15:00.660Z,95530.38
2023-01-18T06:17:09.008Z,95532.84
2023-01-18T06:19:13.995Z,95536.75
2023-01-18T06:21:19.083Z,95537.09
2023-01-18T06:23:24.640Z,95546.94
2023-01-18T06:25:29.525Z,95541.88
2023-01-18T06:27:34.352Z,95542.25
2023-01-18T06:29:39.139Z,95547.63
2023-01-18T06:31:44.166Z,95553.88
2023-01-18T06:33:52.101Z,95550.00
2023-01-18T06:35:56.947Z,95555.84
2023-01-18T06:38:01.801Z,95565.28
2023-01-18T06:40:07.726Z,95570.53
2023-01-18T06:42:12.882Z,95579.59
2023-01-18T06:44:17.505Z,95578.69
2023-01-18T06:46:25.180Z,95591.25
2023-01-18T06:48:30.579Z,95581.78
2023-01-18T06:50:38.087Z,95588.94
2023-01-18T06:52:43.632Z,95593.06
2023-01-18T06:54:50.715Z,95594.78
2023-01-18T06:56:55.492Z,95598.94
2023-01-18T06:59:01.232Z,95603.75
2023-01-18T07:01:07.099Z,95606.00
2023-01-18T07:03:12.395Z,95611.06
2023-01-18T07:05:17.000Z,95608.97
2023-01-18T07:07:24.473Z,95613.44
2023-01-18T07:09:29.475Z,95618.81
2023-01-18T07:11:35.838Z,95628.44
2023-01-18T07:13:43.753Z,95631.00
2023-01-18T07:15:51.237Z,95634.81
2023-01-18T07:17:56.075Z,95637.56
2023-01-18T07:20:00.988Z,95646.47
2023-01-18T07:22:05.968Z,95653.22
2023-01-18T07:24:13.519Z,95660.38
2023-01-18T07:26:19.927Z,95659.13
2023-01-18T07:28:24.793Z,95672.28
2023-01-18T07:30:29.683Z,95669.22
2023-01-18T07:32:34.524Z,95675.94
2023-01-18T07:34:39.323Z,95672.38
2023-01-18T07:36:44.442Z,95684.63
2023-01-18T07:38:50.090Z,95683.94
2023-01-18T07:41:02.247Z,95696.19
2023-01-18T07:43:07.190Z,95692.34
2023-01-18T07:45:14.059Z,95702.00
2023-01-18T07:47:18.889Z,95703.72
2023-01-18T07:49:23.718Z,95712.41
2023-01-18T07:51:28.657Z,95712.19
2023-01-18T07:53:34.843Z,95709.53
2023-01-18T07:55:40.847Z,95717.22
2023-01-18T07:57:48.576Z,95723.75
2023-01-18T07:59:53.481Z,95730.53
2023-01-18T08:01:58.453Z,95739.59
2023-01-18T08:04:03.282Z,95727.97
2023-01-18T08:06:10.267Z,95732.94
2023-01-18T08:08:16.587Z,95738.22
2023-01-18T08:10:21.492Z,95742.97
2023-01-18T08:12:26.333Z,95740.16
2023-01-18T08:14:33.705Z,95737.31
2023-01-18T08:16:38.710Z,95743.97
2023-01-18T08:18:45.619Z,95736.03
2023-01-18T08:20:54.340Z,95748.34
2023-01-18T08:23:01.673Z,95749.88
2023-01-18T08:25:07.146Z,95755.50
2023-01-18T08:27:11.935Z,95758.44
2023-01-18T08:29:16.919Z,95764.13
2023-01-18T08:31:24.985Z,95762.13
2023-01-18T08:33:30.088Z,95765.41
2023-01-18T08:35:37.614Z,95762.59
2023-01-18T08:37:42.404Z,95770.81
2023-01-18T08:39:47.435Z,95767.22
2023-01-18T08:41:52.031Z,95768.50
2023-01-18T08:43:57.784Z,95769.94
2023-01-18T08:46:02.863Z,95780.38
2023-01-18T08:48:12.773Z,95781.66
2023-01-18T08:50:17.615Z,95783.81
2023-01-18T08:52:22.360Z,95786.31
2023-01-18T08:54:27.380Z,95788.22
2023-01-18T08:56:32.238Z,95786.47
2023-01-18T08:58:37.181Z,95792.78
2023-01-18T09:00:42.389Z,95800.13
2023-01-18T09:02:49.607Z,95800.28
2023-01-18T09:04:57.052Z,95810.03
2023-01-18T09:07:01.892Z,95813.94
2023-01-18T09:09:06.757Z,95814.09
2023-01-18T09:11:13.609Z,95816.44
2023-01-18T09:13:18.382Z,95813.28
2023-01-18T09:15:23.296Z,95818.84
2023-01-18T09:17:28.555Z,95821.31
2023-01-18T09:19:33.399Z,95828.44
2023-01-18T09:21:40.864Z,95826.88
2023-01-18T09:23:46.556Z,95837.13
2023-01-18T09:25:51.949Z,95838.78
2023-01-18T09:27:56.889Z,95831.16
2023-01-18T09:30:01.716Z,95835.03
2023-01-18T09:32:08.254Z,95844.41
2023-01-18T09:34:19.683Z,95843.63
2023-01-18T09:36:27.057Z,95846.72
2023-01-18T09:38:36.951Z,95847.00
2023-01-18T09:40:48.060Z,95842.78
2023-01-18T09:42:54.741Z,95848.41
2023-01-18T09:45:02.513Z,95850.09
2023-01-18T09:47:14.220Z,95852.16
2023-01-18T09:49:24.812Z,95860.13
2023-01-18T09:51:34.306Z,95856.13
2023-01-18T09:53:57.271Z,95868.66
2023-01-18T09:56:08.426Z,95871.88
2023-01-18T09:58:27.904Z,95873.69
2023-01-18T10:00:36.653Z,95888.13
2023-01-18T10:02:41.928Z,95878.09
2023-01-18T10:04:47.766Z,95893.94
2023-01-18T10:06:55.463Z,95899.38
2023-01-18T10:09:04.680Z,95896.78
2023-01-18T10:11:12.023Z,95907.00
2023-01-18T10:13:40.720Z,95910.16
2023-01-18T10:15:45.743Z,95914.41
2023-01-18T10:17:50.837Z,95926.25
2023-01-18T10:19:55.617Z,95926.69
2023-01-18T10:22:05.117Z,95925.00
2023-01-18T10:24:24.657Z,95926.97
2023-01-18T10:26:33.287Z,95919.16
2023-01-18T10:28:42.365Z,95931.47
2023-01-18T10:30:51.624Z,95936.25
2023-01-18T10:32:58.253Z,95946.38
2023-01-18T10:35:03.458Z,95943.50
2023-01-18T10:37:14.535Z,95941.41
2023-01-18T10:39:28.202Z,95946.59
2023-01-18T10:41:41.250Z,95945.34
2023-01-18T10:43:45.793Z,95953.38
2023-01-18T10:45:51.195Z,95952.72
2023-01-18T10:47:56.758Z,95946.19
2023-01-18T10:50:02.265Z,95958.13
2023-01-18T10:52:24.638Z,95964.91
2023-01-18T10:54:29.851Z,95960.81
2023-01-18T10:56:37.692Z,95958.66
2023-01-18T10:58:45.662Z,95969.91
2023-01-18T11:00:55.764Z,95976.97
2023-01-18T11:03:01.277Z,95974.28
2023-01-18T11:05:10.023Z,95974.19
2023-01-18T11:07:15.506Z,95975.47
2023-01-18T11:09:42.095Z,95974.50
2023-01-18T11:12:01.701Z,95982.25
2023-01-18T11:14:24.691Z,95990.63
2023-01-18T11:16:29.552Z,95984.50
2023-01-18T11:18:34.197Z,95990.50
2023-01-18T11:20:44.743Z,95994.53
2023-01-18T11:22:56.062Z,95998.56
2023-01-18T11:25:00.691Z,95997.41
2023-01-18T11:27:10.257Z,95998.28
2023-01-18T11:29:17.620Z,96002.22
2023-01-18T11:31:23.533Z,96008.31
2023-01-18T11:33:29.718Z,96008.41
2023-01-18T11:35:36.454Z,96015.47
2023-01-18T11:37:43.696Z,96026.16
2023-01-18T11:39:49.300Z,96025.88
2023-01-18T11:41:56.717Z,96028.94
2023-01-18T11:44:07.742Z,96032.28
2023-01-18T11:46:24.471Z,96042.72
2023-01-18T11:48:32.992Z,96043.00
2023-01-18T11:50:42.359Z,96046.72
2023-01-18T11:52:51.844Z,96043.44
2023-01-18T11:54:58.777Z,96038.44
2023-01-18T11:57:04.217Z,96050.09
2023-01-18T11:59:15.611Z,96048.16
2023-01-18T12:01:28.676Z,96050.63
2023-01-18T12:03:43.006Z,96042.88
2023-01-18T12:05:53.113Z,96056.53
2023-01-18T12:08:03.458Z,96061.53
2023-01-18T12:10:14.068Z,96063.00
2023-01-18T12:12:24.737Z,96071.66
2023-01-18T12:14:49.250Z,96069.16
2023-01-18T12:17:04.443Z,96080.53
2023-01-18T12:19:24.052Z,96083.78
2023-01-18T12:21:34.116Z,96078.97
2023-01-18T12:23:56.001Z,96093.34
2023-01-18T12:26:12.597Z,96091.41
2023-01-18T12:28:21.737Z,96094.19
2023-01-18T12:30:38.686Z,96105.97
2023-01-18T12:32:55.237Z,96112.00
2023-01-18T12:35:22.693Z,96119.44
2023-01-18T12:37:34.241Z,96121.56
2023-01-18T12:39:48.941Z,96123.16
2023-01-18T12:41:59.146Z,96133.31
2023-01-18T12:44:13.377Z,96143.63
2023-01-18T12:46:25.357Z,96142.34
2023-01-18T12:48:32.181Z,96140.78
2023-01-18T12:50:38.392Z,96145.28
2023-01-18T12:52:46.701Z,96150.13
2023-01-18T12:54:56.107Z,96161.69
2023-01-18T12:57:01.855Z,96160.19
2023-01-18T12:59:09.515Z,96171.09
2023-01-18T13:01:19.307Z,96166.72
2023-01-18T13:03:28.700Z,96169.81
2023-01-18T13:05:37.930Z,96177.56
2023-01-18T13:07:44.786Z,96177.25
2023-01-18T13:09:52.374Z,96174.88
2023-01-18T13:11:58.560Z,96183.16
2023-01-18T13:14:09.329Z,96190.53
2023-01-18T13:16:19.884Z,96183.34
2023-01-18T13:18:29.847Z,96189.13
2023-01-18T13:20:42.254Z,96187.47
2023-01-18T13:22:50.960Z,96195.91
2023-01-18T13:25:08.991Z,96196.53
2023-01-18T13:27:14.361Z,96195.63
2023-01-18T13:29:31.233Z,96210.81
2023-01-18T13:31:36.104Z,96206.78
2023-01-18T13:33:45.629Z,96206.19
2023-01-18T13:35:53.362Z,96218.75
2023-01-18T13:37:58.795Z,96216.84
2023-01-18T13:40:03.585Z,96215.06
2023-01-18T13:42:23.951Z,96222.50
2023-01-18T13:44:32.610Z,96231.81
2023-01-18T13:46:39.670Z,96234.13
2023-01-18T13:48:51.065Z,96238.88
2023-01-18T13:50:57.516Z,96241.75
2023-01-18T13:53:18.287Z,96243.81
2023-01-18T13:55:34.303Z,96255.78
2023-01-18T13:57:38.975Z,96256.03
2023-01-18T13:59:47.875Z,96271.56
2023-01-18T14:01:53.344Z,96272.91
2023-01-18T14:04:07.310Z,96277.19
2023-01-18T14:06:17.339Z,96288.78
2023-01-18T14:08:22.982Z,96288.25
2023-01-18T14:10:30.515Z,96291.03
2023-01-18T14:12:51.449Z,96293.03
2023-01-18T14:14:57.238Z,96298.03
2023-01-18T14:17:03.265Z,96296.25
2023-01-18T14:19:17.163Z,96305.09
2023-01-18T14:21:27.757Z,96302.66
2023-01-18T14:23:57.561Z,96309.75
2023-01-18T14:26:04.883Z,96315.34
2023-01-18T14:28:12.335Z,96303.72
2023-01-18T14:30:21.434Z,96317.56
2023-01-18T14:32:30.088Z,96325.59
2023-01-18T14:34:41.734Z,96326.81
2023-01-18T14:36:46.310Z,96346.16
2023-01-18T14:39:09.871Z,96348.72
2023-01-18T14:41:17.968Z,96352.34
2023-01-18T14:43:26.705Z,96363.31
2023-01-18T14:45:32.232Z,96362.66
2023-01-18T14:47:37.747Z,96374.72
2023-01-18T14:49:46.377Z,96381.34
2023-01-18T14:51:54.855Z,96384.94
2023-01-18T14:54:00.765Z,96397.81
2023-01-18T14:56:07.574Z,96407.13
2023-01-18T14:58:14.748Z,96413.44
2023-01-18T15:00:20.455Z,96419.41
2023-01-18T15:02:29.326Z,96425.00
2023-01-18T15:04:38.914Z,96428.38
2023-01-18T15:06:47.975Z,96430.56
2023-01-18T15:08:52.708Z,96436.53
2023-01-18T15:10:57.330Z,96446.13
2023-01-18T15:13:02.238Z,96449.25
2023-01-18T15:15:09.598Z,96448.28
2023-01-18T15:17:21.534Z,96450.66
2023-01-18T15:19:27.317Z,96453.19
2023-01-18T15:21:33.951Z,96455.81
2023-01-18T15:23:43.059Z,96473.56
2023-01-18T15:25:47.608Z,96462.41
2023-01-18T15:27:53.727Z,96469.44
2023-01-18T15:29:59.724Z,96477.25
2023-01-18T15:32:06.298Z,96483.16
2023-01-18T15:34:15.336Z,96485.63
2023-01-18T15:36:20.117Z,96489.84
2023-01-18T15:38:24.821Z,96496.56
2023-01-18T15:40:33.004Z,96496.03
2023-01-18T15:42:40.103Z,96497.88
2023-01-18T15:44:46.211Z,96499.63
2023-01-18T15:46:50.822Z,96504.53
2023-01-18T15:48:57.332Z,96496.03
2023-01-18T15:51:07.832Z,96501.41
2023-01-18T15:53:16.759Z,96507.44
2023-01-18T15:55:22.848Z,96513.34
2023-01-18T15:57:31.035Z,96512.56
2023-01-18T15:59:35.547Z,96521.34
2023-01-18T16:01:41.573Z,96529.22
2023-01-18T16:03:57.632Z,96530.50
2023-01-18T16:06:05.780Z,96531.44
2023-01-18T16:08:21.538Z,96532.34
2023-01-18T16:10:31.597Z,96543.47
2023-01-18T16:12:38.722Z,96551.28
2023-01-18T16:14:46.404Z,96554.84
2023-01-18T16:16:51.528Z,96558.06
2023-01-18T16:19:10.960Z,96559.03
2023-01-18T16:21:17.375Z,96561.78
2023-01-18T16:23:23.199Z,96563.50
2023-01-18T16:25:27.837Z,96572.81
2023-01-18T16:27:34.585Z,96572.59
2023-01-18T16:29:46.629Z,96574.94
2023-01-18T16:31:51.629Z,96569.72
2023-01-18T16:33:56.213Z,96577.41
2023-01-18T16:36:01.605Z,96578.56
2023-01-18T16:38:06.450Z,96588.22
2023-01-18T16:40:11.658Z,96587.41
2023-01-18T16:42:18.196Z,96595.06
2023-01-18T16:44:24.677Z,96612.72
2023-01-18T16:46:33.187Z,96602.34
2023-01-18T16:48:38.010Z,96614.44
2023-01-18T16:50:42.728Z,96620.47
2023-01-18T16:52:47.507Z,96631.69
2023-01-18T16:54:52.129Z,96630.09
2023-01-18T16:56:57.164Z,96629.97
2023-01-18T16:59:02.760Z,96633.44
2023-01-18T17:01:09.232Z,96636.00
2023-01-18T17:03:16.477Z,96638.78
2023-01-18T17:05:21.079Z,96651.47
2023-01-18T17:07:25.731Z,96651.59
2023-01-18T17:09:40.339Z,96653.16
2023-01-18T17:11:52.051Z,96653.16
2023-01-18T17:13:56.654Z,96658.94
2023-01-18T17:16:01.292Z,96657.47
2023-01-18T17:18:08.348Z,96661.16
2023-01-18T17:20:25.541Z,96665.25
2023-01-18T17:22:30.090Z,96658.47
2023-01-18T17:24:34.663Z,96667.13
2023-01-18T17:26:39.689Z,96670.69
2023-01-18T17:28:44.287Z,96673.88
2023-01-18T17:30:49.996Z,96675.72
2023-01-18T17:32:54.672Z,96678.88
2023-01-18T17:34:59.701Z,96675.41
2023-01-18T17:37:06.894Z,96682.13
2023-01-18T17:39:11.470Z,96677.00
2023-01-18T17:41:26.810Z,96684.81
2023-01-18T17:43:34.520Z,96694.16
2023-01-18T17:45:43.891Z,96693.22
2023-01-18T17:47:50.816Z,96694.19
2023-01-18T17:49:55.381Z,96701.97
2023-01-18T17:51:59.940Z,96707.88
2023-01-18T17:54:13.204Z,96714.47
2023-01-18T17:56:24.928Z,96713.75
2023-01-18T17:58:29.574Z,96720.34
2023-01-18T18:00:34.319Z,96726.09
2023-01-18T18:02:38.983Z,96731.00
2023-01-18T18:04:43.539Z,96734.38
2023-01-18T18:06:54.280Z,96733.47
2023-01-18T18:08:59.233Z,96738.41
2023-01-18T18:11:09.298Z,96738.47
2023-01-18T18:13:13.941Z,96739.25
2023-01-18T18:15:22.579Z,96739.50
2023-01-18T18:17:28.147Z,96748.22
2023-01-18T18:19:33.151Z,96750.81
2023-01-18T18:21:37.976Z,96752.34
2023-01-18T18:23:42.678Z,96759.91
2023-01-18T18:25:49.578Z,96762.75
2023-01-18T18:27:56.707Z,96759.59
2023-01-18T18:30:01.423Z,96766.16
2023-01-18T18:32:07.183Z,96772.78
2023-01-18T18:34:11.802Z,96775.31
2023-01-18T18:36:16.333Z,96771.09
2023-01-18T18:38:23.080Z,96775.50
2023-01-18T18:40:27.826Z,96773.03
2023-01-18T18:42:32.595Z,96779.09
2023-01-18T18:44:39.770Z,96780.13
2023-01-18T18:46:44.409Z,96794.47
2023-01-18T18:48:49.739Z,96793.09
2023-01-18T18:50:54.745Z,96797.16
2023-01-18T18:53:00.143Z,96795.31
2023-01-18T18:55:05.115Z,96799.53
2023-01-18T18:57:09.859Z,96805.41
2023-01-18T18:59:14.595Z,96801.88
2023-01-18T19:01:25.273Z,96808.66
2023-01-18T19:03:29.999Z,96809.41
2023-01-18T19:05:35.178Z,96817.38
2023-01-18T19:07:40.655Z,96832.00
2023-01-18T19:09:45.171Z,96830.19
2023-01-18T19:11:55.139Z,96838.81
2023-01-18T19:14:00.236Z,96845.34
2023-01-18T19:16:04.901Z,96847.13
2023-01-18T19:18:12.221Z,96859.94
2023-01-18T19:20:17.839Z,96850.56
2023-01-18T19:22:22.383Z,96848.06
2023-01-18T19:24:31.779Z,96857.59
2023-01-18T19:26:36.346Z,96860.91
2023-01-18T19:28:42.101Z,96863.72
2023-01-18T19:30:49.163Z,96868.78
2023-01-18T19:32:54.417Z,96862.72
2023-01-18T19:35:01.577Z,96867.63
2023-01-18T19:37:06.586Z,96869.41
2023-01-18T19:39:21.512Z,96876.25
2023-01-18T19:41:27.808Z,96866.91
2023-01-18T19:43:32.760Z,96883.03
2023-01-18T19:45:37.649Z,96875.34
2023-01-18T19:47:42.277Z,96879.72
2023-01-18T19:49:46.851Z,96883.44
2023-01-18T19:51:55.873Z,96884.31
2023-01-18T19:54:00.665Z,96884.84
2023-01-18T19:56:07.605Z,96886.53
2023-01-18T19:58:12.331Z,96884.88
2023-01-18T20:00:17.928Z,96882.28
2023-01-18T20:02:22.796Z,96886.63
2023-01-18T20:04:27.469Z,96880.88
2023-01-18T20:06:32.070Z,96895.22
2023-01-18T20:08:39.554Z,96898.44
2023-01-18T20:10:44.112Z,96897.53
2023-01-18T20:12:49.420Z,96901.84
2023-01-18T20:14:53.962Z,96899.28
2023-01-18T20:16:58.544Z,96913.97
2023-01-18T20:19:03.191Z,96909.69
2023-01-18T20:21:08.232Z,96912.81
2023-01-18T20:23:12.797Z,96914.59
2023-01-18T20:25:20.003Z,96915.31
2023-01-18T20:27:24.526Z,96923.63
2023-01-18T20:29:29.127Z,96917.59
2023-01-18T20:31:33.953Z,96925.19
2023-01-18T20:33:38.533Z,96924.28
2023-01-18T20:35:43.112Z,96925.22
2023-01-18T20:37:47.649Z,96935.72
2023-01-18T20:39:52.679Z,96934.19
2023-01-18T20:41:59.891Z,96943.66
2023-01-18T20:44:04.786Z,96946.44
2023-01-18T20:46:10.387Z,96948.91
2023-01-18T20:48:15.568Z,96952.38
2023-01-18T20:50:23.294Z,96957.44
2023-01-18T20:52:27.931Z,96964.38
2023-01-18T20:54:34.655Z,96962.66
2023-01-18T20:56:39.396Z,96971.06
2023-01-18T20:58:46.768Z,96972.81
2023-01-18T21:00:54.758Z,96974.38
2023-01-18T21:03:02.581Z,96977.72
2023-01-18T21:05:08.479Z,96977.63
2023-01-18T21:07:13.000Z,96981.28
2023-01-18T21:09:17.580Z,96977.94
2023-01-18T21:11:23.053Z,96980.59
2023-01-18T21:13:27.735Z,96973.88
2023-01-18T21:15:34.940Z,96977.22
2023-01-18T21:17:39.785Z,96984.16
2023-01-18T21:19:46.096Z,96978.38
2023-01-18T21:21:50.757Z,96984.34
2023-01-18T21:23:55.305Z,96984.50
2023-01-18T21:26:01.709Z,96988.91
2023-01-18T21:28:06.385Z,96985.47
2023-01-18T21:30:11.785Z,96994.94
2023-01-18T21:32:18.911Z,96991.56
2023-01-18T21:34:23.601Z,96994.19
2023-01-18T21:36:28.143Z,96992.53
2023-01-18T21:38:32.719Z,97007.31
2023-01-18T21:40:37.286Z,97000.47
2023-01-18T21:42:54.291Z,96998.81
2023-01-18T21:45:11.270Z,97005.66
2023-01-18T21:47:17.880Z,97007.44
2023-01-18T21:52:15.004Z,97015.94
2023-01-18T21:54:22.139Z,97026.16
2023-01-18T21:56:26.740Z,97030.34
2023-01-18T21:58:43.758Z,97026.22
2023-01-18T22:00:51.321Z,97037.34
2023-01-18T22:02:56.009Z,97036.59
2023-01-18T22:05:00.796Z,97040.06
2023-01-18T22:07:05.370Z,97034.25
2023-01-18T22:09:10.727Z,97040.31
2023-01-18T22:11:15.325Z,97051.47
2023-01-18T22:13:19.846Z,97055.13
2023-01-18T22:15:24.397Z,97064.56
2023-01-18T22:17:28.981Z,97061.13
2023-01-18T22:19:33.571Z,97065.34
2023-01-18T22:21:40.880Z,97068.69
2023-01-18T22:23:45.403Z,97067.84
2023-01-18T22:25:50.153Z,97069.47
2023-01-18T22:27:54.694Z,97073.72
2023-01-18T22:29:59.221Z,97073.75
2023-01-18T22:32:03.844Z,97069.75
2023-01-18T22:34:08.764Z,97073.19
2023-01-18T22:36:13.380Z,97080.75
2023-01-18T22:38:20.506Z,97095.16
2023-01-18T22:40:25.033Z,97083.28
2023-01-18T22:42:30.185Z,97091.00
2023-01-18T22:44:34.830Z,97095.38
2023-01-18T22:46:39.427Z,97095.38
2023-01-18T22:48:44.243Z,97096.31
2023-01-18T22:50:53.988Z,97102.28
2023-01-18T22:52:58.621Z,97103.94
2023-01-18T22:55:05.823Z,97106.44
2023-01-18T22:57:10.322Z,97108.25
2023-01-18T22:59:15.410Z,97109.00
2023-01-18T23:01:21.417Z,97110.66
2023-01-18T23:03:26.167Z,97114.81
2023-01-18T23:05:30.731Z,97115.56
2023-01-18T23:07:35.740Z,97110.38
2023-01-18T23:09:40.234Z,97114.59
2023-01-18T23:11:47.811Z,97115.47
2023-01-18T23:14:05.669Z,97114.53
2023-01-18T23:16:23.308Z,97114.53
2023-01-18T23:18:27.851Z,97128.22
2023-01-18T23:20:32.435Z,97129.84
2023-01-18T23:22:36.942Z,97130.88
2023-01-18T23:24:41.849Z,97134.53
2023-01-18T23:26:49.225Z,97132.06
2023-01-18T23:28:53.911Z,97137.16
2023-01-18T23:30:58.481Z,97142.44
2023-01-18T23:33:03.077Z,97139.19
2023-01-18T23:35:08.253Z,97138.34
2023-01-18T23:37:12.848Z,97139.38
2023-01-18T23:39:29.850Z,97132.59
2023-01-18T23:41:46.842Z,97138.63
2023-01-18T23:44:07.480Z,97136.19
2023-01-18T23:46:24.804Z,97139.56
2023-01-18T23:48:41.778Z,97134.38
2023-01-18T23:51:02.173Z,97130.22
2023-01-18T23:53:19.220Z,97137.19
2023-01-18T23:55:23.818Z,97136.31
2023-01-18T23:57:28.319Z,97147.38
2023-01-18T23:59:36.928Z,97143.88
